CST,Max TemperatureF,Mean TemperatureF,Min TemperatureF,Max Dew PointF,MeanDew PointF,Min DewpointF,Max Humidity, Mean Humidity, Min Humidity, Max Sea Level PressureIn, Mean Sea Level PressureIn, Min Sea Level PressureIn, Max VisibilityMiles, Mean VisibilityMiles, Min VisibilityMiles, Max Wind SpeedMPH, Mean Wind SpeedMPH, Max Gust SpeedMPH,PrecipitationIn, CloudCover, Events, WindDirDegrees
2014-2-1,8,-4,-16,5,-6,-20,92,75,56,30.14,29.98,29.79,10,8,1,14,8,18,0.00,5,Snow,272
2014-2-2,10,-3,-16,3,-6,-20,92,80,67,30.13,30.08,30.03,10,9,2,17,9,22,0.00,4,Snow,195
2014-2-3,12,0,-11,3,-5,-15,92,79,57,30.35,30.18,30.06,10,10,2,15,5,20,0.00,5,Snow,238
2014-2-4,3,-8,-20,-11,-17,-26,84,69,43,30.53,30.48,30.36,10,10,10,9,5,,0.00,1,,302
2014-2-5,-2,-9,-16,-11,-14,-20,84,76,65,30.56,30.51,30.41,10,10,3,14,7,16,0.00,5,Snow,298
2014-2-6,5,-8,-20,-2,-15,-27,92,77,66,30.40,30.18,29.99,10,8,2,17,8,17,0.00,3,Snow,221
2014-2-7,5,-3,-11,-8,-12,-18,84,72,55,30.03,29.98,29.93,10,10,10,20,13,22,0.00,0,,205
2014-2-8,8,-8,-23,0,-15,-29,84,71,56,30.24,30.10,30.02,10,10,4,13,4,,0.00,2,Snow,355
2014-2-9,1,-11,-25,-13,-21,-33,84,71,47,30.36,30.29,30.24,10,10,3,12,3,,0.00,0,Snow,276
2014-2-10,0,-14,-29,-11,-23,-36,84,71,51,30.43,30.40,30.32,10,10,4,9,3,,0.00,0,,188
2014-2-11,17,-2,-20,16,-2,-26,93,80,70,30.32,29.99,29.76,10,6,0,29,14,36,0.00,4,Snow,181
2014-2-12,12,-2,-16,3,-9,-22,92,72,56,30.12,29.94,29.46,10,10,1,17,5,23,0.00,3,Snow,174
2014-2-13,15,2,-11,12,0,-17,92,79,62,29.80,29.58,29.31,10,6,1,22,12,25,0.01,5,Snow,328
2014-2-14,8,-7,-22,-6,-14,-27,84,73,48,30.03,29.94,29.82,10,10,7,15,3,,0.00,2,,208
2014-2-15,19,8,-2,9,2,-8,85,74,58,30.14,29.85,29.67,10,10,7,17,11,17,0.00,6,Snow,325
2014-2-16,21,4,-14,10,1,-18,92,73,58,30.14,30.00,29.78,10,9,1,18,6,30,0.00,3,Snow,130
2014-2-17,28,20,12,23,17,10,100,83,64,29.78,29.63,29.50,10,6,0,18,12,20,0.03,5,Snow,176
2014-2-18,39,26,10,25,19,9,100,77,56,29.68,29.56,29.45,10,10,10,18,11,,0.00,2,,212
2014-2-19,39,22,6,30,17,3,100,76,56,29.70,29.61,29.47,10,10,5,13,8,18,0.00,1,,162
2014-2-20,30,15,0,25,13,-4,100,84,73,29.66,29.57,29.48,10,8,2,18,9,24,0.00,5,Snow,285
2014-2-21,6,0,-5,0,-5,-9,85,80,66,29.72,29.58,29.51,10,5,1,25,17,37,0.00,7,Snow,292
2014-2-22,8,0,-9,-2,-7,-13,92,75,61,30.06,29.90,29.72,10,9,3,20,13,25,0.00,2,Snow,272
2014-2-23,8,0,-7,0,-5,-11,92,75,62,30.25,30.17,30.06,10,10,7,22,11,26,0.00,0,,274
2014-2-24,3,-6,-16,-9,-15,-22,84,73,47,30.32,30.29,30.25,10,9,4,10,7,,0.00,0,Snow,272
2014-2-25,-2,-14,-27,-15,-22,-33,84,70,55,30.35,30.28,30.21,10,10,7,21,7,28,0.00,0,,253
2014-2-26,8,-5,-18,1,-14,-29,84,69,52,30.19,29.84,29.61,10,7,1,29,17,40,0.00,3,Snow,279
2014-2-27,-2,-16,-31,-20,-28,-38,76,56,35,30.14,30.05,29.88,10,10,10,13,6,,0.00,0,,208
2014-2-28,10,-4,-18,-4,-13,-24,84,65,52,30.25,29.91,29.72,10,9,2,17,10,24,0.00,4,Snow,246